Time;durP1;ratioP1;P1;durP2;ratioP2;P2;SDS_P1;SDS_P2;PMS_P1;PMS_P2;Temp;Humidity;BMP_temperature;BMP_pressure;BME280_temperature;BME280_humidity;BME280_pressure;Samples;Min_cycle;Max_cycle;Signal;HPM_P1;HPM_P2
2024/02/04 00:01:29;;;;;;;33.80;16.80;;;;;;;7.22;99.53;99313.13;5048445;28;20033;-78
2024/02/04 00:03:54;;;;;;;28.42;16.85;;;;;;;7.19;99.96;99302.91;5047861;28;20035;-79
2024/02/04 00:06:19;;;;;;;26.30;16.48;;;;;;;7.16;99.60;99302.53;5051782;28;20025;-79
2024/02/04 00:08:45;;;;;;;29.23;17.20;;;;;;;7.24;99.21;99311.06;5052069;28;20032;-79
2024/02/04 00:11:11;;;;;;;32.58;17.50;;;;;;;7.27;99.01;99318.56;5039139;28;20017;-78
2024/02/04 00:13:38;;;;;;;28.63;17.55;;;;;;;7.40;99.34;99315.81;5043544;28;20516;-77
2024/02/04 00:16:03;;;;;;;32.05;17.75;;;;;;;7.16;100.00;99316.63;5024380;28;20051;-76
2024/02/04 00:18:29;;;;;;;29.17;16.63;;;;;;;7.44;99.75;99321.53;5040741;28;20127;-77
2024/02/04 00:20:54;;;;;;;33.53;19.00;;;;;;;7.25;100.00;99333.13;5043039;28;20028;-77
2024/02/04 00:23:19;;;;;;;28.38;16.83;;;;;;;7.44;99.52;99321.53;5048987;28;20033;-77
2024/02/04 00:25:45;;;;;;;31.48;18.50;;;;;;;7.44;98.63;99319.69;5043577;28;20048;-77
2024/02/04 00:28:11;;;;;;;25.20;16.85;;;;;;;7.40;98.60;99315.81;5038217;28;20032;-77
2024/02/04 00:30:37;;;;;;;36.03;18.13;;;;;;;7.32;99.31;99312.63;5045617;28;20031;-77
2024/02/04 00:33:03;;;;;;;32.97;17.02;;;;;;;7.24;99.22;99321.66;5041999;28;20037;-77
2024/02/04 00:35:30;;;;;;;31.83;17.55;;;;;;;7.23;100.00;99317.38;5040047;28;20094;-77
2024/02/04 00:37:56;;;;;;;28.85;16.58;;;;;;;7.26;100.00;99305.53;5047645;28;20029;-77
2024/02/04 00:40:21;;;;;;;29.98;17.45;;;;;;;7.22;99.67;99273.28;5045500;28;20037;-77
2024/02/04 00:42:46;;;;;;;31.95;15.38;;;;;;;7.20;99.90;99283.31;5049289;28;20041;-77
2024/02/04 00:45:12;;;;;;;25.30;15.35;;;;;;;7.17;99.46;99280.25;5032206;28;20033;-77
2024/02/04 00:47:37;;;;;;;27.50;14.73;;;;;;;7.14;99.61;99289.47;5028237;28;20064;-78
2024/02/04 00:50:03;;;;;;;23.88;12.43;;;;;;;7.11;100.00;99286.44;5032881;28;20036;-77
2024/02/04 00:52:28;;;;;;;20.70;13.13;;;;;;;7.06;100.00;99281.78;5046083;28;20037;-76
2024/02/04 00:54:53;;;;;;;20.65;12.57;;;;;;;7.11;100.00;99289.09;5048044;28;20033;-76
2024/02/04 00:57:19;;;;;;;25.85;13.27;;;;;;;7.10;99.86;99290.94;5050428;28;20036;-76
2024/02/04 00:59:44;;;;;;;18.98;11.10;;;;;;;7.04;100.00;99291.78;5048434;28;20056;-77
2024/02/04 01:02:09;;;;;;;16.63;10.93;;;;;;;7.03;100.00;99284.06;5043011;28;20032;-78
2024/02/04 01:04:35;;;;;;;13.93;8.10;;;;;;;7.05;100.00;99295.28;5051829;28;20025;-77
2024/02/04 01:07:00;;;;;;;16.65;9.38;;;;;;;7.01;100.00;99292.22;5045997;28;20030;-77
2024/02/04 01:09:25;;;;;;;15.82;9.23;;;;;;;7.08;99.57;99282.38;5047242;28;20055;-78
2024/02/04 01:11:52;;;;;;;13.60;8.45;;;;;;;6.97;99.74;99288.38;5051143;28;20035;-78
2024/02/04 01:14:18;;;;;;;9.57;5.93;;;;;;;7.06;100.00;99302.19;5052788;28;20037;-78
2024/02/04 01:16:43;;;;;;;12.35;6.60;;;;;;;7.12;99.29;99296.03;5050192;28;20059;-78
2024/02/04 01:19:08;;;;;;;7.13;4.47;;;;;;;6.98;99.77;99297.16;5048472;28;20033;-77
2024/02/04 01:21:34;;;;;;;9.15;5.70;;;;;;;7.20;99.33;99307.22;5043693;28;20024;-78
2024/02/04 01:23:59;;;;;;;9.00;5.78;;;;;;;7.08;98.92;99297.47;5041328;28;20040;-77
2024/02/04 01:26:25;;;;;;;11.15;5.15;;;;;;;7.10;98.95;99288.28;5045006;28;20115;-77
2024/02/04 01:28:50;;;;;;;9.13;4.97;;;;;;;7.17;99.66;99278.44;5045474;28;21628;-77
2024/02/04 01:31:15;;;;;;;7.18;4.55;;;;;;;7.16;98.78;99273.34;5049539;28;20112;-77
2024/02/04 01:33:41;;;;;;;11.02;5.30;;;;;;;7.21;98.90;99270.84;5047696;28;20037;-77
2024/02/04 01:36:06;;;;;;;7.05;4.55;;;;;;;7.23;98.49;99266.94;5053092;28;20045;-78
2024/02/04 01:38:31;;;;;;;8.13;4.72;;;;;;;7.07;98.96;99259.53;5053127;28;20032;-76
2024/02/04 01:40:57;;;;;;;5.90;4.18;;;;;;;7.13;99.16;99263.16;5052224;28;20021;-77
2024/02/04 01:43:23;;;;;;;9.35;4.32;;;;;;;7.04;99.14;99262.59;5047967;28;20508;-76
2024/02/04 01:45:51;;;;;;;5.55;3.92;;;;;;;7.10;99.15;99261.72;5047825;28;20033;-76
2024/02/04 01:48:17;;;;;;;6.68;4.15;;;;;;;7.06;98.59;99255.22;5051768;28;20033;-76
2024/02/04 01:50:43;;;;;;;8.77;5.13;;;;;;;7.19;99.24;99260.44;5052720;28;20025;-76
2024/02/04 01:53:09;;;;;;;6.47;3.88;;;;;;;7.39;97.88;99249.66;5047586;28;20112;-76
2024/02/04 01:55:35;;;;;;;6.35;4.13;;;;;;;7.53;96.51;99251.97;5041859;28;20111;-76
2024/02/04 01:58:02;;;;;;;8.35;4.88;;;;;;;7.39;96.56;99239.84;5046564;28;20045;-76
2024/02/04 02:00:28;;;;;;;6.55;3.63;;;;;;;7.06;98.02;99239.31;5045020;28;20363;-77
2024/02/04 02:02:55;;;;;;;6.03;4.35;;;;;;;7.28;98.15;99242.41;5049252;28;20055;-76
2024/02/04 02:05:20;;;;;;;8.73;4.15;;;;;;;7.28;98.33;99242.41;5051609;28;20058;-76
2024/02/04 02:07:47;;;;;;;6.05;4.72;;;;;;;7.38;97.04;99232.91;5049747;28;20082;-77
2024/02/04 02:10:14;;;;;;;6.35;4.20;;;;;;;7.35;97.75;99237.84;5048978;28;20028;-76
2024/02/04 02:12:47;;;;;;;6.20;4.15;;;;;;;7.16;97.83;99239.66;5048587;28;20095;-76
2024/02/04 02:15:18;;;;;;;8.43;4.75;;;;;;;7.17;98.49;99238.59;5049551;28;20021;-76
2024/02/04 02:18:25;;;;;;;10.23;4.75;;;;;;;7.22;98.92;99235.31;5045659;28;20041;-77
2024/02/04 02:21:25;;;;;;;10.40;4.45;;;;;;;7.19;98.55;99231.25;4987548;28;20034;-77
2024/02/04 02:24:10;;;;;;;12.25;6.13;;;;;;;7.11;98.29;99228.03;5049287;28;20025;-76
2024/02/04 02:26:38;;;;;;;10.77;6.27;;;;;;;7.21;98.04;99223.06;5050436;28;20024;-76
2024/02/04 02:29:08;;;;;;;9.55;5.18;;;;;;;7.29;97.54;99233.41;5051582;28;20037;-77
2024/02/04 02:31:34;;;;;;;9.77;5.65;;;;;;;7.25;97.69;99233.03;5049769;28;20036;-77
2024/02/04 02:33:59;;;;;;;8.40;5.35;;;;;;;7.22;98.68;99209.59;5047368;28;20036;-76
2024/02/04 02:36:29;;;;;;;10.02;6.50;;;;;;;7.22;97.44;99209.59;5051401;28;20027;-77
2024/02/04 02:38:54;;;;;;;8.88;5.78;;;;;;;7.17;98.25;99209.41;5049345;28;20500;-76
2024/02/04 02:41:21;;;;;;;7.22;5.43;;;;;;;7.09;98.97;99203.56;5048369;28;20029;-77
2024/02/04 02:43:47;;;;;;;15.43;8.45;;;;;;;7.07;98.35;99182.56;5044828;28;20021;-77
2024/02/04 02:46:13;;;;;;;13.43;8.15;;;;;;;7.14;99.04;99204.53;5048465;28;20033;-77
2024/02/04 02:48:39;;;;;;;14.77;8.15;;;;;;;7.14;98.78;99203.75;5046839;28;20092;-77
2024/02/04 02:51:05;;;;;;;11.93;7.38;;;;;;;7.15;98.31;99202.69;5047143;28;20098;-77
2024/02/04 02:53:30;;;;;;;13.18;7.95;;;;;;;7.16;98.17;99207.00;5046113;28;20040;-76
2024/02/04 02:55:55;;;;;;;17.58;9.32;;;;;;;7.19;98.51;99202.03;5046790;28;20033;-77
2024/02/04 02:58:21;;;;;;;16.63;8.82;;;;;;;7.09;98.95;99195.59;5041289;28;20091;-77
2024/02/04 03:00:46;;;;;;;14.15;8.27;;;;;;;7.18;98.40;99208.41;5026993;28;20059;-77
2024/02/04 03:03:11;;;;;;;15.60;8.70;;;;;;;7.16;98.64;99196.38;5040906;28;20466;-76
2024/02/04 03:05:37;;;;;;;17.50;9.95;;;;;;;7.17;98.94;99188.19;5040942;28;20457;-78
2024/02/04 03:08:03;;;;;;;17.17;9.40;;;;;;;7.18;99.17;99189.81;5047690;28;20029;-78
2024/02/04 03:10:29;;;;;;;16.55;10.15;;;;;;;7.13;99.91;99207.41;5037776;28;20032;-77
2024/02/04 03:12:54;;;;;;;14.40;9.52;;;;;;;7.09;99.81;99195.59;5044042;28;20063;-77
2024/02/04 03:15:19;;;;;;;19.40;9.18;;;;;;;7.09;99.32;99196.41;5037355;28;20490;-79
2024/02/04 03:17:45;;;;;;;15.95;10.15;;;;;;;7.10;99.51;99187.41;5042240;28;20049;-77
2024/02/04 03:20:11;;;;;;;14.50;8.95;;;;;;;7.22;99.28;99192.84;5022909;28;20052;-77
2024/02/04 03:22:36;;;;;;;15.68;8.95;;;;;;;7.17;99.46;99192.66;5025890;28;20063;-77
2024/02/04 03:25:01;;;;;;;18.52;9.88;;;;;;;7.05;99.86;99179.31;5047111;28;20485;-77
2024/02/04 03:27:27;;;;;;;16.20;9.65;;;;;;;7.07;99.78;99182.56;5051248;28;20033;-78
2024/02/04 03:29:52;;;;;;;18.33;9.30;;;;;;;7.04;100.00;99180.34;5024181;28;20028;-77
2024/02/04 03:32:17;;;;;;;18.20;10.07;;;;;;;7.10;100.00;99179.44;5048543;28;20039;-77
2024/02/04 03:34:43;;;;;;;13.60;8.93;;;;;;;7.10;100.00;99182.09;5011081;28;20051;-78
2024/02/04 03:37:08;;;;;;;15.15;8.82;;;;;;;7.21;99.55;99188.53;5047319;28;20516;-78
2024/02/04 03:39:33;;;;;;;13.13;8.15;;;;;;;7.26;99.14;99180.75;5042969;28;20029;-77
2024/02/04 03:41:59;;;;;;;13.13;7.32;;;;;;;7.25;100.00;99187.88;5045685;28;20041;-78
2024/02/04 03:44:24;;;;;;;11.75;7.30;;;;;;;7.17;99.64;99180.22;5045082;28;20033;-76
2024/02/04 03:46:50;;;;;;;12.43;7.78;;;;;;;7.23;99.82;99175.88;5023012;28;20521;-76
2024/02/04 03:49:16;;;;;;;9.40;6.47;;;;;;;7.30;99.33;99174.78;5043200;28;20051;-76
2024/02/04 03:51:41;;;;;;;10.82;6.80;;;;;;;7.26;99.73;99175.44;5045360;28;20029;-77
2024/02/04 03:54:06;;;;;;;10.80;8.27;;;;;;;7.28;100.00;99176.84;5042610;28;20091;-78
2024/02/04 03:56:32;;;;;;;9.18;5.78;;;;;;;7.31;99.90;99172.94;5042503;28;20473;-75
2024/02/04 03:58:57;;;;;;;11.00;6.97;;;;;;;7.29;100.00;99178.47;5044089;28;20115;-76
2024/02/04 04:01:23;;;;;;;8.80;5.95;;;;;;;7.25;100.00;99165.88;5045075;28;20025;-75
2024/02/04 04:03:49;;;;;;;10.38;6.18;;;;;;;7.25;99.80;99174.63;5045839;28;20029;-77
2024/02/04 04:06:14;;;;;;;7.43;5.30;;;;;;;7.22;100.00;99169.75;5044890;28;20035;-77
2024/02/04 04:08:40;;;;;;;6.55;4.82;;;;;;;7.22;100.00;99166.28;5046802;28;20072;-76
2024/02/04 04:11:08;;;;;;;8.07;5.28;;;;;;;7.23;100.00;99167.94;5045595;28;20037;-77
2024/02/04 04:13:34;;;;;;;7.03;4.90;;;;;;;7.20;99.40;99153.25;5045275;28;20051;-78
2024/02/04 04:16:00;;;;;;;6.72;4.50;;;;;;;7.33;99.45;99168.22;5047095;28;20683;-78
2024/02/04 04:18:25;;;;;;;10.55;4.82;;;;;;;7.35;99.66;99160.84;5047211;28;20029;-76
2024/02/04 04:20:51;;;;;;;5.07;4.07;;;;;;;7.30;99.27;99171.31;5049277;28;20032;-79
2024/02/04 04:23:16;;;;;;;5.75;4.32;;;;;;;7.24;99.75;99175.66;5047967;28;20032;-78
2024/02/04 04:25:41;;;;;;;9.38;3.97;;;;;;;7.35;99.46;99171.47;5050001;28;20043;-79
2024/02/04 04:28:07;;;;;;;6.68;4.45;;;;;;;7.24;99.97;99150.94;5049954;28;20115;-78
2024/02/04 04:30:32;;;;;;;5.43;3.88;;;;;;;7.18;99.42;99168.59;5050385;28;20916;-77
2024/02/04 04:32:58;;;;;;;5.38;4.10;;;;;;;7.10;100.00;99176.81;5036379;28;20056;-77
2024/02/04 04:35:25;;;;;;;5.15;3.95;;;;;;;7.17;100.00;99172.25;5053453;28;20029;-77
2024/02/04 04:37:50;;;;;;;8.80;4.32;;;;;;;7.20;100.00;99165.69;5048357;28;21868;-76
2024/02/04 04:40:16;;;;;;;4.68;3.63;;;;;;;7.16;100.00;99144.09;5052768;28;20033;-77
2024/02/04 04:42:41;;;;;;;4.45;3.10;;;;;;;7.12;100.00;99142.88;5052950;28;20131;-77
2024/02/04 04:45:07;;;;;;;5.28;3.95;;;;;;;7.08;100.00;99154.16;5052409;28;20021;-77
2024/02/04 04:47:33;;;;;;;5.15;3.63;;;;;;;7.08;100.00;99127.63;5046007;28;20032;-77
2024/02/04 04:49:59;;;;;;;7.95;3.72;;;;;;;7.06;100.00;99122.53;5047626;28;20544;-77
2024/02/04 04:52:24;;;;;;;4.65;3.88;;;;;;;7.24;100.00;99143.81;5047051;28;20041;-77
2024/02/04 04:54:49;;;;;;;4.40;3.42;;;;;;;7.21;100.00;99135.44;5044940;28;20025;-77
2024/02/04 04:57:15;;;;;;;3.45;3.10;;;;;;;7.27;100.00;99140.69;5045468;28;20025;-77
2024/02/04 04:59:41;;;;;;;3.90;2.85;;;;;;;7.09;100.00;99121.28;5012013;28;20497;-78
2024/02/04 05:02:06;;;;;;;4.38;3.35;;;;;;;7.15;100.00;99129.19;5047448;28;20033;-79
2024/02/04 05:04:32;;;;;;;3.83;3.20;;;;;;;7.16;100.00;99116.75;5051030;28;20559;-81
2024/02/04 05:06:57;;;;;;;2.78;2.55;;;;;;;7.27;100.00;99130.06;5051680;28;20048;-78
2024/02/04 05:09:22;;;;;;;4.40;3.28;;;;;;;7.35;100.00;99136.94;5050961;28;20119;-80
2024/02/04 05:11:48;;;;;;;5.72;2.97;;;;;;;7.24;100.00;99141.16;5057113;28;20052;-81
2024/02/04 05:14:13;;;;;;;4.07;3.70;;;;;;;7.35;100.00;99147.56;5052968;28;20028;-79
2024/02/04 05:16:38;;;;;;;4.45;3.08;;;;;;;7.35;100.00;99129.00;5057761;28;20036;-79
2024/02/04 05:19:04;;;;;;;5.40;3.33;;;;;;;7.41;99.65;99128.91;5054581;28;20045;-79
2024/02/04 05:21:29;;;;;;;3.75;3.33;;;;;;;7.38;99.78;99132.00;5056127;28;20036;-78
2024/02/04 05:23:54;;;;;;;3.72;3.10;;;;;;;7.48;99.78;99139.47;5051711;28;20103;-78
2024/02/04 05:26:20;;;;;;;3.58;2.80;;;;;;;7.47;99.46;99148.44;5029776;28;20123;-76
2024/02/04 05:28:45;;;;;;;3.25;2.58;;;;;;;7.39;100.00;99138.13;5048187;28;20060;-76
2024/02/04 05:31:11;;;;;;;2.67;2.42;;;;;;;7.52;99.51;99148.59;5050530;28;20044;-77
2024/02/04 05:33:36;;;;;;;2.60;2.33;;;;;;;7.52;99.28;99145.94;5049527;28;20029;-77
2024/02/04 05:36:02;;;;;;;3.33;3.03;;;;;;;7.34;100.00;99136.13;5049003;28;20123;-77
2024/02/04 05:38:27;;;;;;;2.28;2.00;;;;;;;7.39;100.00;99151.41;5048742;28;20056;-77
2024/02/04 05:40:53;;;;;;;3.45;2.65;;;;;;;7.38;100.00;99161.22;5046544;28;20636;-76
2024/02/04 05:43:18;;;;;;;1.02;0.95;;;;;;;7.26;100.00;99155.00;5049968;28;20087;-76
2024/02/04 05:45:43;;;;;;;2.97;2.33;;;;;;;7.39;100.00;99154.06;5047544;28;20036;-76
2024/02/04 05:48:09;;;;;;;2.88;2.25;;;;;;;7.38;100.00;99163.06;5049050;28;20087;-76
2024/02/04 05:50:35;;;;;;;2.50;2.28;;;;;;;7.32;100.00;99172.72;5047271;28;20090;-77
2024/02/04 05:53:01;;;;;;;1.05;0.95;;;;;;;7.17;100.00;99168.78;5047905;28;20034;-77
2024/02/04 05:55:26;;;;;;;2.38;1.73;;;;;;;7.21;100.00;99167.31;5046251;28;20507;-76
2024/02/04 05:57:52;;;;;;;1.95;1.60;;;;;;;7.32;100.00;99162.09;5026430;28;20028;-76
2024/02/04 06:00:17;;;;;;;0.82;0.82;;;;;;;7.39;100.00;99162.03;5044972;28;20564;-76
2024/02/04 06:02:43;;;;;;;1.85;1.58;;;;;;;7.44;100.00;99157.69;5041430;28;20037;-76
2024/02/04 06:05:13;;;;;;;1.60;1.50;;;;;;;7.34;100.00;99160.03;5047196;28;20060;-76
2024/02/04 06:07:40;;;;;;;1.35;1.30;;;;;;;7.41;99.67;99179.38;5049150;28;20033;-76
2024/02/04 06:10:08;;;;;;;1.85;1.48;;;;;;;7.24;100.00;99157.06;5042781;28;20028;-76
2024/02/04 06:12:33;;;;;;;1.48;1.38;;;;;;;7.28;100.00;99168.88;5047399;28;20033;-77
2024/02/04 06:14:59;;;;;;;1.83;1.40;;;;;;;7.18;100.00;99178.38;5047343;28;20040;-76
2024/02/04 06:17:24;;;;;;;0.93;0.93;;;;;;;7.32;100.00;99170.06;5048846;28;20036;-76
2024/02/04 06:19:49;;;;;;;1.17;0.80;;;;;;;7.23;100.00;99152.78;5046480;28;20033;-77
2024/02/04 06:22:15;;;;;;;1.08;1.00;;;;;;;7.34;100.00;99154.72;5049318;28;20067;-77
2024/02/04 06:24:40;;;;;;;1.33;0.98;;;;;;;7.16;100.00;99154.72;5046447;28;20083;-77
2024/02/04 06:27:08;;;;;;;1.00;1.00;;;;;;;7.24;100.00;99164.22;5047410;28;20071;-77
2024/02/04 06:29:33;;;;;;;1.38;1.27;;;;;;;7.29;100.00;99159.06;5042086;28;20047;-77
2024/02/04 06:31:58;;;;;;;1.60;1.20;;;;;;;7.28;100.00;99155.59;5028807;28;20025;-77
2024/02/04 06:34:24;;;;;;;1.13;1.02;;;;;;;7.39;100.00;99146.91;5048343;28;20359;-77
2024/02/04 06:36:50;;;;;;;1.00;1.00;;;;;;;7.28;100.00;99147.63;5049084;28;20029;-76
2024/02/04 06:39:16;;;;;;;0.73;0.73;;;;;;;7.23;100.00;99159.97;5042085;28;20383;-76
2024/02/04 06:41:41;;;;;;;1.90;1.52;;;;;;;7.27;100.00;99145.22;5045279;28;20091;-77
2024/02/04 06:44:06;;;;;;;1.70;1.60;;;;;;;7.27;100.00;99135.38;5043795;28;20037;-76
2024/02/04 06:46:32;;;;;;;1.33;1.13;;;;;;;7.29;100.00;99130.69;5028324;28;20033;-77
2024/02/04 06:48:57;;;;;;;1.92;1.73;;;;;;;7.30;100.00;99123.50;5046720;28;20033;-76
2024/02/04 06:51:23;;;;;;;2.17;1.92;;;;;;;7.25;100.00;99132.13;5048910;28;20035;-77
2024/02/04 06:53:48;;;;;;;2.47;2.05;;;;;;;7.18;100.00;99125.28;5046014;28;20040;-77
2024/02/04 06:56:14;;;;;;;2.17;1.90;;;;;;;7.15;100.00;99105.31;5046965;28;20039;-77
2024/02/04 06:58:40;;;;;;;5.15;3.17;;;;;;;7.11;100.00;99130.66;5050239;28;20033;-77
2024/02/04 07:01:06;;;;;;;3.40;2.58;;;;;;;7.26;100.00;99120.50;5024090;28;20029;-77
2024/02/04 07:03:32;;;;;;;4.63;3.75;;;;;;;7.28;100.00;99110.47;5050852;28;20025;-76
2024/02/04 07:05:58;;;;;;;7.97;5.22;;;;;;;7.10;100.00;99107.78;5046540;28;20039;-78
2024/02/04 07:08:24;;;;;;;7.85;5.38;;;;;;;7.22;100.00;99121.97;5043310;28;20060;-77
2024/02/04 07:10:49;;;;;;;8.63;5.57;;;;;;;7.30;100.00;99110.25;5047271;28;20444;-76
2024/02/04 07:13:14;;;;;;;14.77;6.72;;;;;;;7.17;100.00;99108.53;5045533;28;20751;-77
2024/02/04 07:15:40;;;;;;;9.25;6.55;;;;;;;7.26;100.00;99128.47;5045554;28;20064;-76
2024/02/04 07:18:05;;;;;;;10.30;7.70;;;;;;;7.18;100.00;99135.91;5049815;28;20041;-76
2024/02/04 07:20:31;;;;;;;11.55;8.15;;;;;;;7.19;100.00;99148.13;5048027;28;20029;-77
2024/02/04 07:22:56;;;;;;;17.25;10.73;;;;;;;7.20;100.00;99134.66;5046414;28;20489;-76
2024/02/04 07:25:22;;;;;;;17.52;10.27;;;;;;;7.19;100.00;99137.50;5045270;28;20036;-76
2024/02/04 07:27:48;;;;;;;15.02;10.95;;;;;;;7.24;100.00;99129.72;5047609;28;20035;-76
2024/02/04 07:30:13;;;;;;;18.58;10.95;;;;;;;7.23;100.00;99122.81;5048031;28;20029;-75
2024/02/04 07:32:39;;;;;;;15.77;11.40;;;;;;;7.17;100.00;99134.28;5047233;28;20059;-75
2024/02/04 07:35:04;;;;;;;15.88;11.32;;;;;;;7.28;100.00;99130.91;5049499;28;20048;-77
2024/02/04 07:37:30;;;;;;;18.15;11.32;;;;;;;7.29;100.00;99125.38;5051074;28;20044;-76
2024/02/04 07:39:55;;;;;;;17.05;11.27;;;;;;;7.33;100.00;99102.66;5044330;28;20452;-77
2024/02/04 07:42:20;;;;;;;18.40;11.30;;;;;;;7.37;100.00;99133.06;5047003;28;20402;-78
2024/02/04 07:44:47;;;;;;;19.20;11.88;;;;;;;7.39;99.54;99143.44;5026044;28;20528;-77
2024/02/04 07:47:13;;;;;;;19.38;12.25;;;;;;;7.41;100.00;99144.03;5026434;28;20036;-78
2024/02/04 07:49:38;;;;;;;17.60;10.85;;;;;;;7.38;99.73;99126.69;5044605;28;20037;-77
2024/02/04 07:52:04;;;;;;;22.52;12.52;;;;;;;7.23;100.00;99139.50;5042481;28;20064;-75
2024/02/04 07:54:30;;;;;;;17.80;8.55;;;;;;;7.17;100.00;99124.47;5046465;28;20045;-77
2024/02/04 07:56:55;;;;;;;21.27;12.52;;;;;;;7.10;100.00;99138.84;5046102;28;20032;-78
2024/02/04 07:59:21;;;;;;;19.33;11.45;;;;;;;7.10;100.00;99131.69;5048193;28;20106;-79
2024/02/04 08:01:47;;;;;;;20.65;12.15;;;;;;;7.11;100.00;99121.88;5035187;28;20069;-76
2024/02/04 08:04:12;;;;;;;20.55;12.85;;;;;;;7.05;100.00;99114.81;5043647;28;20033;-77
2024/02/04 08:06:38;;;;;;;20.40;13.00;;;;;;;7.15;100.00;99120.41;5029995;28;20082;-76
2024/02/04 08:09:04;;;;;;;17.90;12.70;;;;;;;7.23;100.00;99106.88;5029527;28;20155;-78
2024/02/04 08:11:30;;;;;;;22.08;13.23;;;;;;;7.24;100.00;99108.47;5048390;28;20025;-77
2024/02/04 08:13:55;;;;;;;20.33;12.48;;;;;;;7.27;100.00;99108.03;5048134;28;20043;-78
2024/02/04 08:16:21;;;;;;;19.30;12.70;;;;;;;7.41;100.00;99115.63;5048255;28;20039;-78
2024/02/04 08:18:47;;;;;;;17.90;11.25;;;;;;;7.31;100.00;99088.81;5040719;28;20040;-77
2024/02/04 08:21:12;;;;;;;20.80;13.13;;;;;;;7.32;100.00;99106.34;5046614;28;20028;-76
2024/02/04 08:23:39;;;;;;;20.35;12.50;;;;;;;7.39;100.00;99091.16;5028990;28;20060;-76
2024/02/04 08:26:04;;;;;;;19.77;13.18;;;;;;;7.54;100.00;99096.91;5041945;28;20029;-75
2024/02/04 08:28:30;;;;;;;19.20;12.38;;;;;;;7.45;99.34;99092.09;5045963;28;20529;-75
2024/02/04 08:30:55;;;;;;;18.70;12.73;;;;;;;7.29;100.00;99090.88;5047365;28;20029;-75
2024/02/04 08:33:21;;;;;;;21.00;13.23;;;;;;;7.43;100.00;99097.63;5025983;28;20025;-76
2024/02/04 08:35:47;;;;;;;21.58;11.88;;;;;;;7.50;99.56;99086.94;5045824;28;20551;-77
2024/02/04 08:38:12;;;;;;;21.50;14.10;;;;;;;7.37;100.00;99061.34;5047718;28;20029;-77
2024/02/04 08:40:38;;;;;;;17.95;11.50;;;;;;;7.44;100.00;99078.03;5046472;28;20079;-77
2024/02/04 08:43:03;;;;;;;17.98;12.32;;;;;;;7.48;99.83;99076.53;5033038;28;20524;-76
2024/02/04 08:45:29;;;;;;;19.15;12.38;;;;;;;7.31;100.00;99078.19;5046426;28;20501;-77
2024/02/04 08:47:54;;;;;;;20.50;12.60;;;;;;;7.32;100.00;99073.66;5043595;28;20033;-77
2024/02/04 08:50:20;;;;;;;22.88;12.88;;;;;;;7.34;100.00;99076.91;5045338;28;20108;-77
2024/02/04 08:52:45;;;;;;;22.88;13.57;;;;;;;7.30;100.00;99076.53;5049590;28;20025;-78
2024/02/04 08:55:10;;;;;;;21.38;12.63;;;;;;;7.29;100.00;99074.13;5048057;28;20524;-77
2024/02/04 08:57:36;;;;;;;20.67;12.27;;;;;;;7.28;100.00;99075.13;5039244;28;20147;-76
2024/02/04 09:00:02;;;;;;;19.67;12.07;;;;;;;7.29;100.00;99088.22;5038229;28;20043;-77
2024/02/04 09:02:27;;;;;;;20.92;12.82;;;;;;;7.28;100.00;99091.06;5042264;28;20083;-77
2024/02/04 09:04:53;;;;;;;19.02;13.95;;;;;;;7.28;100.00;99107.81;5042161;28;20032;-77
2024/02/04 09:07:19;;;;;;;15.55;10.88;;;;;;;7.25;100.00;99105.59;5056571;28;20116;-78
2024/02/04 09:09:45;;;;;;;19.20;12.57;;;;;;;7.19;100.00;99106.47;5044880;28;20088;-77
2024/02/04 09:12:10;;;;;;;20.38;12.60;;;;;;;7.24;100.00;99103.16;5031262;28;20936;-79
2024/02/04 09:14:36;;;;;;;20.58;12.75;;;;;;;7.16;100.00;99106.94;5053006;28;20024;-76
2024/02/04 09:17:06;;;;;;;16.33;10.70;;;;;;;7.14;100.00;99100.22;5048289;28;20350;-77
2024/02/04 09:19:32;;;;;;;19.20;10.98;;;;;;;7.25;100.00;99100.28;5050946;28;20060;-77
2024/02/04 09:21:57;;;;;;;16.08;10.27;;;;;;;7.21;100.00;99096.44;5045746;28;20118;-76
2024/02/04 09:24:22;;;;;;;16.15;10.48;;;;;;;7.21;100.00;99093.78;5051493;28;20040;-76
2024/02/04 09:26:48;;;;;;;16.15;9.75;;;;;;;7.15;100.00;99096.53;5054525;28;20025;-76
2024/02/04 09:29:14;;;;;;;16.35;11.23;;;;;;;7.26;100.00;99101.91;5041101;28;20587;-76
2024/02/04 09:31:39;;;;;;;17.05;11.32;;;;;;;7.34;100.00;99106.94;5040194;28;20045;-75
2024/02/04 09:34:04;;;;;;;13.65;10.23;;;;;;;7.28;100.00;99107.00;5048325;28;20032;-75
2024/02/04 09:36:30;;;;;;;17.58;12.15;;;;;;;7.30;100.00;99105.75;5047059;28;20032;-75
2024/02/04 09:38:55;;;;;;;15.48;11.68;;;;;;;7.34;100.00;99098.97;5048418;28;20436;-76
2024/02/04 09:41:22;;;;;;;20.52;12.30;;;;;;;7.45;100.00;99100.06;5051689;28;20033;-79
2024/02/04 09:43:50;;;;;;;16.35;10.30;;;;;;;7.31;100.00;99098.59;5045337;28;20037;-76
2024/02/04 09:46:16;;;;;;;22.50;11.38;;;;;;;7.31;100.00;99099.44;5053171;28;20116;-76
2024/02/04 09:48:45;;;;;;;16.38;11.65;;;;;;;7.42;100.00;99095.22;5055914;28;20486;-78
2024/02/04 09:51:10;;;;;;;19.10;12.20;;;;;;;7.49;100.00;99093.31;5049134;28;20041;-76
2024/02/04 09:53:44;;;;;;;17.58;11.38;;;;;;;7.52;100.00;99084.88;5045416;28;20204;-76
2024/02/04 09:56:11;;;;;;;17.88;11.75;;;;;;;7.37;100.00;99082.59;5046288;28;20037;-76
2024/02/04 09:58:37;;;;;;;19.27;12.05;;;;;;;7.37;100.00;99064.00;5056199;28;20033;-76
2024/02/04 10:01:04;;;;;;;21.08;14.13;;;;;;;7.49;99.85;99080.03;5049710;28;20029;-76
2024/02/04 10:03:30;;;;;;;17.40;12.52;;;;;;;7.40;100.00;99078.69;5051434;28;20087;-76
2024/02/04 10:05:56;;;;;;;18.30;13.10;;;;;;;7.49;100.00;99074.72;5050509;28;20032;-75
2024/02/04 10:08:21;;;;;;;19.90;14.23;;;;;;;7.50;100.00;99071.81;5044686;28;20091;-76
2024/02/04 10:10:47;;;;;;;20.20;12.88;;;;;;;7.55;100.00;99073.81;5047961;28;20111;-77
2024/02/04 10:13:13;;;;;;;18.83;11.73;;;;;;;7.64;99.21;99082.28;5049045;28;20033;-75
2024/02/04 10:15:38;;;;;;;17.70;11.85;;;;;;;7.56;98.80;99108.09;5047602;28;20021;-76
2024/02/04 10:18:05;;;;;;;18.67;12.38;;;;;;;7.49;99.33;99106.56;5049438;28;20021;-75
2024/02/04 10:20:31;;;;;;;18.40;11.93;;;;;;;7.63;100.00;99088.63;5046260;28;20032;-76
2024/02/04 10:22:56;;;;;;;32.92;13.52;;;;;;;8.03;98.38;99090.53;5049901;28;20432;-75
2024/02/04 10:25:21;;;;;;;24.67;12.98;;;;;;;7.89;98.79;99089.09;5044986;28;20421;-75
2024/02/04 10:27:47;;;;;;;23.52;13.88;;;;;;;7.56;98.92;99084.19;5046060;28;20029;-74
2024/02/04 10:30:14;;;;;;;21.75;13.20;;;;;;;7.67;99.35;99081.81;5040573;28;20131;-75
2024/02/04 10:32:39;;;;;;;22.08;13.82;;;;;;;7.71;98.39;99097.09;5047531;28;20029;-75
2024/02/04 10:35:05;;;;;;;17.95;10.27;;;;;;;7.43;99.72;99108.25;5043785;28;20063;-75
2024/02/04 10:37:30;;;;;;;18.70;10.80;;;;;;;7.44;100.00;99111.72;5048256;28;20090;-75
2024/02/04 10:39:55;;;;;;;19.50;8.82;;;;;;;7.45;99.81;99108.84;5049627;28;20036;-75
2024/02/04 10:42:26;;;;;;;14.98;8.85;;;;;;;7.54;99.82;99112.00;5049219;28;20113;-77
2024/02/04 10:44:54;;;;;;;15.07;8.52;;;;;;;7.61;99.91;99096.81;5050358;28;20095;-75
2024/02/04 10:47:23;;;;;;;12.82;8.32;;;;;;;7.58;99.38;99098.06;5048583;28;20087;-75
2024/02/04 10:49:55;;;;;;;13.13;7.93;;;;;;;7.65;99.58;99087.38;5048738;28;20404;-75
2024/02/04 10:52:20;;;;;;;13.77;7.88;;;;;;;7.66;99.83;99085.53;5043795;28;20051;-75
2024/02/04 10:54:46;;;;;;;12.50;7.32;;;;;;;7.72;99.55;99095.25;5040346;28;20036;-75
2024/02/04 10:57:16;;;;;;;11.90;6.57;;;;;;;7.66;98.92;99080.22;5044462;28;20017;-75
2024/02/04 10:59:43;;;;;;;9.18;6.57;;;;;;;7.64;100.00;99075.13;5044213;28;20096;-75
2024/02/04 11:02:10;;;;;;;14.45;7.10;;;;;;;7.60;100.00;99094.38;5049137;28;20444;-75
2024/02/04 11:04:38;;;;;;;12.10;7.43;;;;;;;7.79;98.55;99074.72;5044571;28;20033;-75
2024/02/04 11:07:05;;;;;;;10.95;7.47;;;;;;;7.66;99.58;99085.53;5046993;28;20033;-75
2024/02/04 11:09:31;;;;;;;13.82;6.65;;;;;;;7.55;99.69;99093.22;5042446;28;20469;-75
2024/02/04 11:11:59;;;;;;;10.65;7.03;;;;;;;7.68;98.79;99081.63;5044113;28;20107;-75
2024/02/04 11:14:26;;;;;;;14.23;8.02;;;;;;;7.72;98.68;99076.66;5047573;28;20059;-76
2024/02/04 11:17:27;;;;;;;15.27;8.02;;;;;;;7.83;97.38;99067.91;5064900;22;20095;-81
2024/02/04 11:20:11;;;;;;;11.05;6.72;;;;;;;7.61;97.82;99066.78;5046693;28;20116;-82
2024/02/04 11:22:57;;;;;;;10.05;7.03;;;;;;;7.64;96.67;99043.25;5029037;28;20519;-83
2024/02/04 11:25:49;;;;;;;15.02;8.43;;;;;;;7.79;97.60;99054.28;5046890;28;20393;-83